Aérodrome :
LOGIN :

S'inscrire | Disclaimer

   EN    FR    IT 

 










Légende :    VFR   VFR Marginal   IFR   IFR Intensif   IFR Très Intensif
Visi : 
Plafond : 
>= 8 km
>= 3000ft
5 à 8 km
1000 à 3000 ft
1500m à 5 km
500 à 1000 ft
800 à 1500m
200 à 500 ft
< 800m
< 200 ft
Symboles :   Orages  Brouillard  Fortes neiges  Fortes précipitations  Vent > 20 kt
SIGMETs :   Divers  Orages  Givrage  Turbulence  Onde Orograph.  Cendres Volcan.






- Altitude de l'aérodrome : 47 ft
- Code IATA : BMA


ESSB - Stockholm-Bromma

DERNIER METAR :
  • 072320Z AUTO 19004KT 160V240 9999 BKN150/// 19/14 Q1025

METARs EXPIRÉS :
  • 072250Z AUTO 20004KT 9999 SCT110/// BKN150/// 20/14 Q1025
  • 072220Z AUTO 21004KT 170V230 9999 OVC110/// 20/14 Q1025
  • 072150Z AUTO 19004KT 150V220 9999 OVC110/// 20/14 Q1025
  • 072120Z AUTO 18004KT 150V220 9999 BKN110/// BKN170/// 20/14 Q1025
  • 072050Z AUTO 19004KT 160V220 9999 NCD 20/13 Q1025
  • 072020Z AUTO 17004KT 150V210 9999 SCT150/// 20/13 Q1025

TAF TAF ESSB
Valide du 07 à 21h jusqu'au 08 à 06h UTC


072030Z 0721/0806 17006KT CAVOK



MET'MAP, la Météo Aéronautique d'un coup d'oeil ! - Copyright ORBIFLY Décembre 2007 - Disclaimer

ORBIFLY MET'MAP TEAM :

Programmation & Développement : Alexandra Zaïnal
Sur une idée originale de : Baudouin d'Aumeries
Assistance à la programmation : Marc-Olivier Méhu
Soutien technique & logistique : Manuel Goepfert

Contact : metmap@orbifly.com




SOURCES & CREDITS :

   NOAA